Overview Statistics Trail Chart Weather Telemetry Raw packets
 

This is the latest recevied weather packets stored in our database for station/object KY0TEQ-13. If no packets are shown the sender has not sent any weather packets the latest 10 day(s).

<< 1 2 3 4 5 6 >>
Time Temp. Humidity Pressure Rain* Wind** Luminosity Snow
1788684539 13.33° C 46% 1309 hPa 0 mm - 0 W/m² -
1788684235 11.67° C 52% 1308.9 hPa 0 mm - 0 W/m² -
1788683929 12.78° C 49% 1308.9 hPa 0 mm - 0 W/m² -
1788683624 12.22° C 49% 1309 hPa 0 mm - 0 W/m² -
1788683324 11.67° C 53% 1309 hPa 0 mm - 0 W/m² -
1788683019 13.33° C 47% 1309.1 hPa 0 mm - 0 W/m² -
1788682715 12.78° C 51% 1309.1 hPa 0 mm - 0 W/m² -
1788682411 13.33° C 49% 1309 hPa 0 mm - 0 W/m² -
1788682107 13.33° C 47% 1309 hPa 0 mm - 0 W/m² -
1788681803 13.89° C 47% 1309.3 hPa 0 mm - 0 W/m² -
1788681501 12.78° C 49% 1309.3 hPa 0 mm - 0 W/m² -
1788681196 13.89° C 48% 1309.3 hPa 0 mm - 0 W/m² -
1788680892 13.33° C 47% 1309.3 hPa 0 mm - 0 W/m² -
1788680591 14.44° C 46% 1309.4 hPa 0 mm - 0 W/m² -
1788680290 15° C 44% 1309.3 hPa 0 mm - 0 W/m² -
1788679985 15° C 44% 1309.3 hPa 0 mm - 0 W/m² -
1788679682 14.44° C 45% 1309.4 hPa 0 mm - 0 W/m² -
1788679377 15° C 43% 1309.3 hPa 0 mm - 0 W/m² -
1788679073 14.44° C 45% 1309.5 hPa 0 mm - 0 W/m² -
1788678773 15.56° C 43% 1309.4 hPa 0 mm - 0 W/m² -
1788678470 15.56° C 42% 1309.3 hPa 0 mm - 0 W/m² -
1788678165 15° C 44% 1309.4 hPa 0 mm - 0 W/m² -
1788677864 15° C 45% 1309.1 hPa 0 mm - 0 W/m² -
1788677560 15.56° C 42% 1309.3 hPa 0 mm - 0 W/m² -
1788677256 14.44° C 46% 1309.1 hPa 0 mm - 0 W/m² -

* Rain latest hour (hover to see other rain measurements)
** Current wind speed in m/s (hover to see current wind gust speed)